Hartsgrove, Ohio
Current Conditions -  °F | °C
As of 3:53 AM on Thursday 18 Dec 2014 (Local Time) from KHZY Reporting Station
Overcast Overcast  
Wind Chill: 19°   Ceiling: 2100
Heat Index: 29°   Visibility: 10mi
Dew Point: 22°   Wind: 12mph
Humidity: 75%   Direction: 290°WNW
Pressure: 30.15"   Gusts: NA
Location:  41.6051°N, 80.867°W
Report Text: KHZY 180853Z AUTO 29010KT 10SM OVC021 M02/M06 A3015 RMK AO2 SLP220 60000 T10171056 51013
Loading
Personal Weather Stations






























Interactive Weather Map New forecast layout! Learn more

10-Day Weather Forecast

Advertisements
Track Severe Weather on mobile